sensor_id;sensor_type;location;lat;lon;timestamp;P1;durP1;ratioP1;P2;durP2;ratioP2
13933;SDS011;7039;52.168;9.866;2022-07-15T00:01:51;2.23;;;1.43;;
13933;SDS011;7039;52.168;9.866;2022-07-15T00:04:17;2.00;;;1.50;;
13933;SDS011;7039;52.168;9.866;2022-07-15T00:06:44;2.10;;;1.60;;
13933;SDS011;7039;52.168;9.866;2022-07-15T00:09:10;4.27;;;2.03;;
13933;SDS011;7039;52.168;9.866;2022-07-15T00:11:37;3.50;;;1.60;;
13933;SDS011;7039;52.168;9.866;2022-07-15T00:14:05;5.17;;;1.63;;
13933;SDS011;7039;52.168;9.866;2022-07-15T00:16:32;2.43;;;1.80;;
13933;SDS011;7039;52.168;9.866;2022-07-15T00:18:58;4.33;;;1.90;;
13933;SDS011;7039;52.168;9.866;2022-07-15T00:21:25;6.30;;;1.80;;
13933;SDS011;7039;52.168;9.866;2022-07-15T00:23:51;2.53;;;1.93;;
13933;SDS011;7039;52.168;9.866;2022-07-15T00:26:18;3.90;;;1.80;;
13933;SDS011;7039;52.168;9.866;2022-07-15T00:28:46;3.30;;;1.70;;
13933;SDS011;7039;52.168;9.866;2022-07-15T00:31:14;4.67;;;2.13;;
13933;SDS011;7039;52.168;9.866;2022-07-15T00:33:40;9.60;;;3.37;;
13933;SDS011;7039;52.168;9.866;2022-07-15T00:36:07;3.93;;;2.30;;
13933;SDS011;7039;52.168;9.866;2022-07-15T00:38:33;7.13;;;2.20;;
13933;SDS011;7039;52.168;9.866;2022-07-15T00:41:00;10.27;;;2.00;;
13933;SDS011;7039;52.168;9.866;2022-07-15T00:43:26;2.47;;;1.97;;
13933;SDS011;7039;52.168;9.866;2022-07-15T00:45:53;5.00;;;1.83;;
13933;SDS011;7039;52.168;9.866;2022-07-15T00:48:21;8.83;;;2.33;;
13933;SDS011;7039;52.168;9.866;2022-07-15T00:50:47;4.20;;;2.07;;
13933;SDS011;7039;52.168;9.866;2022-07-15T00:53:16;5.97;;;2.47;;
13933;SDS011;7039;52.168;9.866;2022-07-15T00:55:44;3.43;;;1.83;;
13933;SDS011;7039;52.168;9.866;2022-07-15T00:58:14;3.43;;;2.17;;
13933;SDS011;7039;52.168;9.866;2022-07-15T01:00:42;6.93;;;2.03;;
13933;SDS011;7039;52.168;9.866;2022-07-15T01:03:10;4.63;;;1.90;;
13933;SDS011;7039;52.168;9.866;2022-07-15T01:05:38;4.57;;;2.43;;
13933;SDS011;7039;52.168;9.866;2022-07-15T01:08:05;3.87;;;1.80;;
13933;SDS011;7039;52.168;9.866;2022-07-15T01:10:31;4.40;;;1.97;;
13933;SDS011;7039;52.168;9.866;2022-07-15T01:13:00;8.77;;;2.33;;
13933;SDS011;7039;52.168;9.866;2022-07-15T01:15:28;4.97;;;2.23;;
13933;SDS011;7039;52.168;9.866;2022-07-15T01:17:56;9.10;;;2.70;;
13933;SDS011;7039;52.168;9.866;2022-07-15T01:20:23;7.80;;;2.30;;
13933;SDS011;7039;52.168;9.866;2022-07-15T01:22:50;9.83;;;2.37;;
13933;SDS011;7039;52.168;9.866;2022-07-15T01:25:17;7.97;;;1.77;;
13933;SDS011;7039;52.168;9.866;2022-07-15T01:27:43;7.77;;;2.17;;
13933;SDS011;7039;52.168;9.866;2022-07-15T01:30:10;8.70;;;3.23;;
13933;SDS011;7039;52.168;9.866;2022-07-15T01:32:37;8.07;;;2.43;;
13933;SDS011;7039;52.168;9.866;2022-07-15T01:35:04;8.77;;;2.13;;
13933;SDS011;7039;52.168;9.866;2022-07-15T01:37:31;3.27;;;1.80;;
13933;SDS011;7039;52.168;9.866;2022-07-15T01:39:59;8.00;;;2.20;;
13933;SDS011;7039;52.168;9.866;2022-07-15T01:42:25;9.37;;;2.50;;
13933;SDS011;7039;52.168;9.866;2022-07-15T01:44:52;8.13;;;2.53;;
13933;SDS011;7039;52.168;9.866;2022-07-15T01:47:19;5.73;;;2.13;;
13933;SDS011;7039;52.168;9.866;2022-07-15T01:49:45;11.03;;;2.77;;
13933;SDS011;7039;52.168;9.866;2022-07-15T01:52:12;12.07;;;2.13;;
13933;SDS011;7039;52.168;9.866;2022-07-15T01:54:39;8.43;;;2.20;;
13933;SDS011;7039;52.168;9.866;2022-07-15T01:57:07;6.40;;;2.07;;
13933;SDS011;7039;52.168;9.866;2022-07-15T01:59:33;11.17;;;2.20;;
13933;SDS011;7039;52.168;9.866;2022-07-15T02:02:00;6.73;;;2.57;;
13933;SDS011;7039;52.168;9.866;2022-07-15T02:04:26;6.60;;;2.10;;
13933;SDS011;7039;52.168;9.866;2022-07-15T02:06:53;10.10;;;2.20;;
13933;SDS011;7039;52.168;9.866;2022-07-15T02:09:20;6.53;;;1.83;;
13933;SDS011;7039;52.168;9.866;2022-07-15T02:11:47;3.77;;;1.83;;
13933;SDS011;7039;52.168;9.866;2022-07-15T02:14:14;8.43;;;1.90;;
13933;SDS011;7039;52.168;9.866;2022-07-15T02:16:41;4.30;;;2.03;;
13933;SDS011;7039;52.168;9.866;2022-07-15T02:19:08;6.40;;;1.90;;
13933;SDS011;7039;52.168;9.866;2022-07-15T02:21:34;7.57;;;1.77;;
13933;SDS011;7039;52.168;9.866;2022-07-15T02:24:02;9.47;;;1.90;;
13933;SDS011;7039;52.168;9.866;2022-07-15T02:26:29;10.67;;;2.03;;
13933;SDS011;7039;52.168;9.866;2022-07-15T02:28:56;4.57;;;1.67;;
13933;SDS011;7039;52.168;9.866;2022-07-15T02:31:24;10.47;;;2.03;;
13933;SDS011;7039;52.168;9.866;2022-07-15T02:33:50;8.97;;;1.73;;
13933;SDS011;7039;52.168;9.866;2022-07-15T02:36:17;8.37;;;1.63;;
13933;SDS011;7039;52.168;9.866;2022-07-15T02:38:44;4.07;;;1.60;;
13933;SDS011;7039;52.168;9.866;2022-07-15T02:41:11;9.37;;;2.03;;
13933;SDS011;7039;52.168;9.866;2022-07-15T02:43:38;5.73;;;1.90;;
13933;SDS011;7039;52.168;9.866;2022-07-15T02:46:06;4.40;;;1.60;;
13933;SDS011;7039;52.168;9.866;2022-07-15T02:48:35;8.97;;;1.80;;
13933;SDS011;7039;52.168;9.866;2022-07-15T02:51:02;5.83;;;1.63;;
13933;SDS011;7039;52.168;9.866;2022-07-15T02:53:29;5.33;;;1.87;;
13933;SDS011;7039;52.168;9.866;2022-07-15T02:55:56;7.43;;;1.50;;
13933;SDS011;7039;52.168;9.866;2022-07-15T02:58:24;7.70;;;1.87;;
13933;SDS011;7039;52.168;9.866;2022-07-15T03:00:50;7.63;;;1.93;;
13933;SDS011;7039;52.168;9.866;2022-07-15T03:03:17;7.07;;;1.97;;
13933;SDS011;7039;52.168;9.866;2022-07-15T03:05:45;7.67;;;1.70;;
13933;SDS011;7039;52.168;9.866;2022-07-15T03:08:12;8.43;;;1.50;;
13933;SDS011;7039;52.168;9.866;2022-07-15T03:10:38;7.73;;;1.97;;
13933;SDS011;7039;52.168;9.866;2022-07-15T03:13:05;7.20;;;2.87;;
13933;SDS011;7039;52.168;9.866;2022-07-15T03:15:31;5.60;;;2.27;;
13933;SDS011;7039;52.168;9.866;2022-07-15T03:17:58;5.63;;;2.37;;
13933;SDS011;7039;52.168;9.866;2022-07-15T03:20:24;8.00;;;2.43;;
13933;SDS011;7039;52.168;9.866;2022-07-15T03:22:52;7.70;;;1.90;;
13933;SDS011;7039;52.168;9.866;2022-07-15T03:25:19;13.00;;;2.77;;
13933;SDS011;7039;52.168;9.866;2022-07-15T03:27:45;7.57;;;2.13;;
13933;SDS011;7039;52.168;9.866;2022-07-15T03:30:12;6.23;;;1.67;;
13933;SDS011;7039;52.168;9.866;2022-07-15T03:32:39;6.83;;;1.83;;
13933;SDS011;7039;52.168;9.866;2022-07-15T03:35:05;5.57;;;1.83;;
13933;SDS011;7039;52.168;9.866;2022-07-15T03:37:32;7.87;;;2.00;;
13933;SDS011;7039;52.168;9.866;2022-07-15T03:40:00;4.53;;;1.93;;
13933;SDS011;7039;52.168;9.866;2022-07-15T03:42:27;7.00;;;1.80;;
13933;SDS011;7039;52.168;9.866;2022-07-15T03:44:54;7.77;;;1.73;;
13933;SDS011;7039;52.168;9.866;2022-07-15T03:47:20;9.63;;;2.03;;
13933;SDS011;7039;52.168;9.866;2022-07-15T03:49:47;9.80;;;2.60;;
13933;SDS011;7039;52.168;9.866;2022-07-15T03:52:13;9.27;;;1.67;;
13933;SDS011;7039;52.168;9.866;2022-07-15T03:54:40;6.57;;;1.50;;
13933;SDS011;7039;52.168;9.866;2022-07-15T03:57:08;8.00;;;1.93;;
13933;SDS011;7039;52.168;9.866;2022-07-15T03:59:35;6.13;;;2.20;;
13933;SDS011;7039;52.168;9.866;2022-07-15T04:02:03;7.00;;;1.50;;
13933;SDS011;7039;52.168;9.866;2022-07-15T04:04:31;8.13;;;1.83;;
13933;SDS011;7039;52.168;9.866;2022-07-15T04:09:34;7.27;;;2.27;;
13933;SDS011;7039;52.168;9.866;2022-07-15T04:12:03;7.77;;;2.37;;
13933;SDS011;7039;52.168;9.866;2022-07-15T04:30:03;5.07;;;1.77;;
13933;SDS011;7039;52.168;9.866;2022-07-15T04:42:53;9.63;;;1.97;;
13933;SDS011;7039;52.168;9.866;2022-07-15T04:56:25;10.33;;;2.00;;
13933;SDS011;7039;52.168;9.866;2022-07-15T04:59:23;8.27;;;1.73;;
13933;SDS011;7039;52.168;9.866;2022-07-15T05:35:26;6.27;;;1.73;;
13933;SDS011;7039;52.168;9.866;2022-07-15T05:37:54;10.30;;;1.70;;
13933;SDS011;7039;52.168;9.866;2022-07-15T05:42:57;6.67;;;1.93;;
13933;SDS011;7039;52.168;9.866;2022-07-15T05:55:47;7.20;;;2.20;;
13933;SDS011;7039;52.168;9.866;2022-07-15T05:58:14;7.53;;;1.83;;
13933;SDS011;7039;52.168;9.866;2022-07-15T06:00:42;5.93;;;1.60;;
13933;SDS011;7039;52.168;9.866;2022-07-15T06:03:09;8.23;;;1.70;;
13933;SDS011;7039;52.168;9.866;2022-07-15T06:05:38;5.83;;;1.40;;
13933;SDS011;7039;52.168;9.866;2022-07-15T06:10:41;11.53;;;1.80;;
13933;SDS011;7039;52.168;9.866;2022-07-15T06:13:13;5.07;;;1.50;;
13933;SDS011;7039;52.168;9.866;2022-07-15T06:18:17;9.00;;;1.97;;
13933;SDS011;7039;52.168;9.866;2022-07-15T06:20:50;9.57;;;2.00;;
13933;SDS011;7039;52.168;9.866;2022-07-15T06:23:24;5.00;;;1.80;;
13933;SDS011;7039;52.168;9.866;2022-07-15T06:31:04;17.17;;;2.33;;
13933;SDS011;7039;52.168;9.866;2022-07-15T06:33:31;3.90;;;1.50;;
13933;SDS011;7039;52.168;9.866;2022-07-15T06:38:40;8.70;;;2.20;;
13933;SDS011;7039;52.168;9.866;2022-07-15T06:51:42;6.17;;;1.33;;
13933;SDS011;7039;52.168;9.866;2022-07-15T06:59:55;7.37;;;1.50;;
13933;SDS011;7039;52.168;9.866;2022-07-15T07:02:23;6.40;;;1.40;;
13933;SDS011;7039;52.168;9.866;2022-07-15T09:54:36;1.73;;;0.60;;
13933;SDS011;7039;52.168;9.866;2022-07-15T09:57:08;1.17;;;0.60;;
13933;SDS011;7039;52.168;9.866;2022-07-15T09:59:36;1.53;;;0.60;;
13933;SDS011;7039;52.168;9.866;2022-07-15T10:02:03;4.07;;;0.80;;
13933;SDS011;7039;52.168;9.866;2022-07-15T10:04:30;2.63;;;0.80;;
13933;SDS011;7039;52.168;9.866;2022-07-15T10:06:57;1.50;;;0.70;;
13933;SDS011;7039;52.168;9.866;2022-07-15T10:09:27;1.97;;;0.90;;
13933;SDS011;7039;52.168;9.866;2022-07-15T10:11:56;1.70;;;0.63;;
13933;SDS011;7039;52.168;9.866;2022-07-15T10:17:36;8.60;;;0.80;;
13933;SDS011;7039;52.168;9.866;2022-07-15T10:20:22;2.37;;;0.60;;
13933;SDS011;7039;52.168;9.866;2022-07-15T10:23:02;2.83;;;0.73;;
13933;SDS011;7039;52.168;9.866;2022-07-15T10:25:46;3.87;;;0.73;;
13933;SDS011;7039;52.168;9.866;2022-07-15T10:28:22;2.93;;;1.37;;
13933;SDS011;7039;52.168;9.866;2022-07-15T10:31:13;4.40;;;1.37;;
13933;SDS011;7039;52.168;9.866;2022-07-15T10:33:42;5.30;;;0.80;;
13933;SDS011;7039;52.168;9.866;2022-07-15T10:36:09;4.03;;;0.60;;
13933;SDS011;7039;52.168;9.866;2022-07-15T10:38:36;4.20;;;1.60;;
13933;SDS011;7039;52.168;9.866;2022-07-15T10:41:07;5.83;;;0.80;;
13933;SDS011;7039;52.168;9.866;2022-07-15T10:43:42;2.43;;;0.60;;
13933;SDS011;7039;52.168;9.866;2022-07-15T10:46:23;2.53;;;0.70;;
13933;SDS011;7039;52.168;9.866;2022-07-15T10:48:53;1.63;;;0.57;;
13933;SDS011;7039;52.168;9.866;2022-07-15T10:51:53;2.27;;;0.70;;
13933;SDS011;7039;52.168;9.866;2022-07-15T10:54:40;1.23;;;0.50;;
13933;SDS011;7039;52.168;9.866;2022-07-15T10:57:10;3.50;;;0.67;;
13933;SDS011;7039;52.168;9.866;2022-07-15T10:59:39;3.70;;;0.73;;
13933;SDS011;7039;52.168;9.866;2022-07-15T11:02:14;3.17;;;0.70;;
13933;SDS011;7039;52.168;9.866;2022-07-15T11:04:42;3.87;;;0.67;;
13933;SDS011;7039;52.168;9.866;2022-07-15T11:07:20;3.47;;;1.00;;
13933;SDS011;7039;52.168;9.866;2022-07-15T11:09:51;3.97;;;0.80;;
13933;SDS011;7039;52.168;9.866;2022-07-15T11:12:21;1.57;;;0.70;;
13933;SDS011;7039;52.168;9.866;2022-07-15T11:14:50;2.13;;;0.70;;
13933;SDS011;7039;52.168;9.866;2022-07-15T11:17:20;1.67;;;0.90;;
13933;SDS011;7039;52.168;9.866;2022-07-15T11:19:51;2.27;;;0.60;;
13933;SDS011;7039;52.168;9.866;2022-07-15T11:22:20;5.30;;;0.90;;
13933;SDS011;7039;52.168;9.866;2022-07-15T11:24:48;1.73;;;0.83;;
13933;SDS011;7039;52.168;9.866;2022-07-15T11:27:15;5.70;;;1.07;;
13933;SDS011;7039;52.168;9.866;2022-07-15T11:29:44;2.70;;;0.90;;
13933;SDS011;7039;52.168;9.866;2022-07-15T11:32:17;1.43;;;0.90;;
13933;SDS011;7039;52.168;9.866;2022-07-15T11:34:45;4.13;;;0.90;;
13933;SDS011;7039;52.168;9.866;2022-07-15T11:37:13;3.50;;;1.10;;
13933;SDS011;7039;52.168;9.866;2022-07-15T11:39:44;5.30;;;0.70;;
13933;SDS011;7039;52.168;9.866;2022-07-15T11:42:17;3.27;;;1.03;;
13933;SDS011;7039;52.168;9.866;2022-07-15T11:45:04;2.23;;;0.77;;
13933;SDS011;7039;52.168;9.866;2022-07-15T11:47:32;1.80;;;0.70;;
13933;SDS011;7039;52.168;9.866;2022-07-15T11:49:58;3.53;;;0.93;;
13933;SDS011;7039;52.168;9.866;2022-07-15T11:52:26;2.23;;;0.70;;
13933;SDS011;7039;52.168;9.866;2022-07-15T11:54:53;2.53;;;0.80;;
13933;SDS011;7039;52.168;9.866;2022-07-15T11:57:21;4.57;;;0.90;;
13933;SDS011;7039;52.168;9.866;2022-07-15T11:59:52;2.13;;;0.83;;
13933;SDS011;7039;52.168;9.866;2022-07-15T12:02:24;3.43;;;0.80;;
13933;SDS011;7039;52.168;9.866;2022-07-15T12:05:00;1.40;;;0.70;;
13933;SDS011;7039;52.168;9.866;2022-07-15T12:07:37;4.27;;;0.83;;
13933;SDS011;7039;52.168;9.866;2022-07-15T12:10:06;4.47;;;1.00;;
13933;SDS011;7039;52.168;9.866;2022-07-15T12:12:33;0.77;;;0.63;;
13933;SDS011;7039;52.168;9.866;2022-07-15T12:15:00;2.33;;;1.13;;
13933;SDS011;7039;52.168;9.866;2022-07-15T12:17:28;3.27;;;1.10;;
13933;SDS011;7039;52.168;9.866;2022-07-15T12:19:54;4.07;;;0.90;;
13933;SDS011;7039;52.168;9.866;2022-07-15T12:22:23;3.47;;;0.90;;
13933;SDS011;7039;52.168;9.866;2022-07-15T12:24:50;2.13;;;0.83;;
13933;SDS011;7039;52.168;9.866;2022-07-15T12:27:17;4.10;;;0.70;;
13933;SDS011;7039;52.168;9.866;2022-07-15T12:29:45;1.70;;;0.80;;
13933;SDS011;7039;52.168;9.866;2022-07-15T12:32:12;2.97;;;0.80;;
13933;SDS011;7039;52.168;9.866;2022-07-15T12:34:48;2.87;;;0.93;;
13933;SDS011;7039;52.168;9.866;2022-07-15T12:37:17;1.67;;;0.77;;
13933;SDS011;7039;52.168;9.866;2022-07-15T12:39:55;3.10;;;0.73;;
13933;SDS011;7039;52.168;9.866;2022-07-15T12:42:24;1.80;;;0.80;;
13933;SDS011;7039;52.168;9.866;2022-07-15T12:45:10;2.63;;;0.77;;
13933;SDS011;7039;52.168;9.866;2022-07-15T12:50:28;3.93;;;1.00;;
13933;SDS011;7039;52.168;9.866;2022-07-15T12:52:55;2.50;;;0.83;;
13933;SDS011;7039;52.168;9.866;2022-07-15T12:55:23;2.30;;;0.90;;
13933;SDS011;7039;52.168;9.866;2022-07-15T12:57:51;3.70;;;0.97;;
13933;SDS011;7039;52.168;9.866;2022-07-15T13:00:27;3.33;;;0.60;;
13933;SDS011;7039;52.168;9.866;2022-07-15T13:02:56;6.47;;;1.10;;
13933;SDS011;7039;52.168;9.866;2022-07-15T13:05:26;2.03;;;0.83;;
13933;SDS011;7039;52.168;9.866;2022-07-15T13:07:56;3.53;;;0.83;;
13933;SDS011;7039;52.168;9.866;2022-07-15T13:10:22;2.10;;;0.70;;
13933;SDS011;7039;52.168;9.866;2022-07-15T13:12:49;1.10;;;0.63;;
13933;SDS011;7039;52.168;9.866;2022-07-15T13:15:16;1.67;;;0.70;;
13933;SDS011;7039;52.168;9.866;2022-07-15T13:17:43;2.27;;;0.70;;
13933;SDS011;7039;52.168;9.866;2022-07-15T13:20:09;3.07;;;0.70;;
13933;SDS011;7039;52.168;9.866;2022-07-15T13:22:38;4.00;;;0.93;;
13933;SDS011;7039;52.168;9.866;2022-07-15T13:25:05;3.20;;;0.97;;
13933;SDS011;7039;52.168;9.866;2022-07-15T13:27:32;2.93;;;0.97;;
13933;SDS011;7039;52.168;9.866;2022-07-15T13:29:59;3.27;;;0.80;;
13933;SDS011;7039;52.168;9.866;2022-07-15T13:32:25;1.80;;;0.73;;
13933;SDS011;7039;52.168;9.866;2022-07-15T13:34:52;3.80;;;0.90;;
13933;SDS011;7039;52.168;9.866;2022-07-15T13:37:18;2.30;;;0.90;;
13933;SDS011;7039;52.168;9.866;2022-07-15T13:39:46;0.80;;;0.70;;
13933;SDS011;7039;52.168;9.866;2022-07-15T13:42:13;1.47;;;0.60;;
13933;SDS011;7039;52.168;9.866;2022-07-15T13:44:39;1.23;;;0.70;;
13933;SDS011;7039;52.168;9.866;2022-07-15T13:47:06;2.30;;;0.97;;
13933;SDS011;7039;52.168;9.866;2022-07-15T13:49:32;5.00;;;0.97;;
13933;SDS011;7039;52.168;9.866;2022-07-15T13:52:31;3.23;;;0.93;;
13933;SDS011;7039;52.168;9.866;2022-07-15T13:54:59;3.70;;;0.70;;
13933;SDS011;7039;52.168;9.866;2022-07-15T13:57:26;2.63;;;0.97;;
13933;SDS011;7039;52.168;9.866;2022-07-15T13:59:52;1.63;;;0.70;;
13933;SDS011;7039;52.168;9.866;2022-07-15T14:02:19;2.13;;;0.83;;
13933;SDS011;7039;52.168;9.866;2022-07-15T14:04:45;3.53;;;1.00;;
13933;SDS011;7039;52.168;9.866;2022-07-15T14:07:12;1.70;;;0.80;;
13933;SDS011;7039;52.168;9.866;2022-07-15T14:09:38;3.43;;;0.70;;
13933;SDS011;7039;52.168;9.866;2022-07-15T14:12:06;2.00;;;0.80;;
13933;SDS011;7039;52.168;9.866;2022-07-15T14:14:33;1.10;;;0.80;;
13933;SDS011;7039;52.168;9.866;2022-07-15T14:16:59;2.70;;;1.10;;
13933;SDS011;7039;52.168;9.866;2022-07-15T14:19:26;4.17;;;1.10;;
13933;SDS011;7039;52.168;9.866;2022-07-15T14:21:52;3.87;;;1.10;;
13933;SDS011;7039;52.168;9.866;2022-07-15T14:24:19;3.70;;;0.70;;
13933;SDS011;7039;52.168;9.866;2022-07-15T14:26:45;1.97;;;0.83;;
13933;SDS011;7039;52.168;9.866;2022-07-15T14:29:13;2.53;;;0.53;;
13933;SDS011;7039;52.168;9.866;2022-07-15T14:31:40;3.30;;;0.70;;
13933;SDS011;7039;52.168;9.866;2022-07-15T14:34:07;3.57;;;1.03;;
13933;SDS011;7039;52.168;9.866;2022-07-15T14:36:33;4.97;;;1.17;;
13933;SDS011;7039;52.168;9.866;2022-07-15T14:39:00;2.20;;;0.67;;
13933;SDS011;7039;52.168;9.866;2022-07-15T14:41:26;6.07;;;0.80;;
13933;SDS011;7039;52.168;9.866;2022-07-15T14:43:53;3.47;;;0.80;;
13933;SDS011;7039;52.168;9.866;2022-07-15T14:46:21;2.70;;;1.17;;
13933;SDS011;7039;52.168;9.866;2022-07-15T14:48:48;2.07;;;0.70;;
13933;SDS011;7039;52.168;9.866;2022-07-15T14:51:14;2.40;;;0.80;;
13933;SDS011;7039;52.168;9.866;2022-07-15T14:53:41;5.50;;;0.70;;
13933;SDS011;7039;52.168;9.866;2022-07-15T14:56:07;5.87;;;0.90;;
13933;SDS011;7039;52.168;9.866;2022-07-15T14:58:34;2.80;;;0.80;;
13933;SDS011;7039;52.168;9.866;2022-07-15T15:01:01;4.60;;;0.80;;
13933;SDS011;7039;52.168;9.866;2022-07-15T15:03:29;3.23;;;0.80;;
13933;SDS011;7039;52.168;9.866;2022-07-15T15:05:56;1.63;;;0.90;;
13933;SDS011;7039;52.168;9.866;2022-07-15T15:08:22;2.57;;;0.70;;
13933;SDS011;7039;52.168;9.866;2022-07-15T15:10:49;2.93;;;0.80;;
13933;SDS011;7039;52.168;9.866;2022-07-15T15:13:16;2.17;;;0.90;;
13933;SDS011;7039;52.168;9.866;2022-07-15T15:15:42;1.23;;;0.70;;
13933;SDS011;7039;52.168;9.866;2022-07-15T15:18:09;2.40;;;0.77;;
13933;SDS011;7039;52.168;9.866;2022-07-15T15:20:37;1.87;;;0.70;;
13933;SDS011;7039;52.168;9.866;2022-07-15T15:23:03;3.13;;;1.30;;
13933;SDS011;7039;52.168;9.866;2022-07-15T15:25:30;2.63;;;0.70;;
13933;SDS011;7039;52.168;9.866;2022-07-15T15:28:14;2.63;;;0.87;;
13933;SDS011;7039;52.168;9.866;2022-07-15T15:30:40;2.17;;;0.73;;
13933;SDS011;7039;52.168;9.866;2022-07-15T15:33:07;2.87;;;0.80;;
13933;SDS011;7039;52.168;9.866;2022-07-15T15:35:33;3.03;;;0.70;;
13933;SDS011;7039;52.168;9.866;2022-07-15T15:38:01;2.37;;;1.00;;
13933;SDS011;7039;52.168;9.866;2022-07-15T15:40:28;3.03;;;0.70;;
13933;SDS011;7039;52.168;9.866;2022-07-15T15:42:55;3.47;;;0.70;;
13933;SDS011;7039;52.168;9.866;2022-07-15T15:45:21;2.17;;;0.80;;
13933;SDS011;7039;52.168;9.866;2022-07-15T15:47:48;4.33;;;0.70;;
13933;SDS011;7039;52.168;9.866;2022-07-15T15:50:14;2.83;;;0.77;;
13933;SDS011;7039;52.168;9.866;2022-07-15T15:52:42;4.20;;;0.90;;
13933;SDS011;7039;52.168;9.866;2022-07-15T15:55:10;2.23;;;0.63;;
13933;SDS011;7039;52.168;9.866;2022-07-15T15:57:37;0.93;;;0.60;;
13933;SDS011;7039;52.168;9.866;2022-07-15T16:00:04;3.53;;;0.80;;
13933;SDS011;7039;52.168;9.866;2022-07-15T16:02:32;2.67;;;0.83;;
13933;SDS011;7039;52.168;9.866;2022-07-15T16:04:59;1.23;;;0.50;;
13933;SDS011;7039;52.168;9.866;2022-07-15T16:07:25;2.93;;;1.43;;
13933;SDS011;7039;52.168;9.866;2022-07-15T16:09:52;1.17;;;0.70;;
13933;SDS011;7039;52.168;9.866;2022-07-15T16:12:20;0.97;;;0.43;;
13933;SDS011;7039;52.168;9.866;2022-07-15T16:14:47;2.57;;;0.70;;
13933;SDS011;7039;52.168;9.866;2022-07-15T16:17:13;7.10;;;0.80;;
13933;SDS011;7039;52.168;9.866;2022-07-15T16:19:40;1.83;;;0.60;;
13933;SDS011;7039;52.168;9.866;2022-07-15T16:22:06;1.00;;;0.53;;
13933;SDS011;7039;52.168;9.866;2022-07-15T16:24:50;1.70;;;0.60;;
13933;SDS011;7039;52.168;9.866;2022-07-15T16:27:17;2.43;;;0.70;;
13933;SDS011;7039;52.168;9.866;2022-07-15T16:29:45;1.93;;;0.60;;
13933;SDS011;7039;52.168;9.866;2022-07-15T16:32:11;3.83;;;0.60;;
13933;SDS011;7039;52.168;9.866;2022-07-15T16:34:38;1.50;;;0.80;;
13933;SDS011;7039;52.168;9.866;2022-07-15T16:37:04;1.70;;;0.60;;
13933;SDS011;7039;52.168;9.866;2022-07-15T16:39:31;1.80;;;0.50;;
13933;SDS011;7039;52.168;9.866;2022-07-15T16:41:57;1.03;;;0.67;;
13933;SDS011;7039;52.168;9.866;2022-07-15T16:44:24;0.70;;;0.50;;
13933;SDS011;7039;52.168;9.866;2022-07-15T16:46:52;2.67;;;0.50;;
13933;SDS011;7039;52.168;9.866;2022-07-15T16:49:19;3.17;;;0.60;;
13933;SDS011;7039;52.168;9.866;2022-07-15T16:51:45;1.17;;;0.50;;
13933;SDS011;7039;52.168;9.866;2022-07-15T16:54:12;2.23;;;1.20;;
13933;SDS011;7039;52.168;9.866;2022-07-15T16:56:38;2.77;;;1.00;;
13933;SDS011;7039;52.168;9.866;2022-07-15T16:59:05;1.27;;;0.60;;
13933;SDS011;7039;52.168;9.866;2022-07-15T17:01:31;1.73;;;0.50;;
13933;SDS011;7039;52.168;9.866;2022-07-15T17:03:59;2.10;;;0.50;;
13933;SDS011;7039;52.168;9.866;2022-07-15T17:06:26;2.10;;;0.70;;
13933;SDS011;7039;52.168;9.866;2022-07-15T17:08:52;1.87;;;0.50;;
13933;SDS011;7039;52.168;9.866;2022-07-15T17:11:19;1.27;;;0.60;;
13933;SDS011;7039;52.168;9.866;2022-07-15T17:13:45;1.67;;;0.50;;
13933;SDS011;7039;52.168;9.866;2022-07-15T17:16:12;1.37;;;0.60;;
13933;SDS011;7039;52.168;9.866;2022-07-15T17:18:38;2.20;;;0.60;;
13933;SDS011;7039;52.168;9.866;2022-07-15T17:21:06;3.00;;;0.60;;
13933;SDS011;7039;52.168;9.866;2022-07-15T17:23:34;1.53;;;0.60;;
13933;SDS011;7039;52.168;9.866;2022-07-15T17:26:01;0.90;;;0.60;;
13933;SDS011;7039;52.168;9.866;2022-07-15T17:28:27;1.07;;;0.60;;
13933;SDS011;7039;52.168;9.866;2022-07-15T17:30:54;1.27;;;0.60;;
13933;SDS011;7039;52.168;9.866;2022-07-15T17:33:21;1.10;;;0.50;;
13933;SDS011;7039;52.168;9.866;2022-07-15T17:35:47;3.83;;;0.80;;
13933;SDS011;7039;52.168;9.866;2022-07-15T17:38:15;4.43;;;0.50;;
13933;SDS011;7039;52.168;9.866;2022-07-15T17:40:41;5.37;;;0.53;;
13933;SDS011;7039;52.168;9.866;2022-07-15T17:43:08;6.43;;;0.80;;
13933;SDS011;7039;52.168;9.866;2022-07-15T17:45:34;1.43;;;0.50;;
13933;SDS011;7039;52.168;9.866;2022-07-15T17:48:01;1.53;;;0.60;;
13933;SDS011;7039;52.168;9.866;2022-07-15T17:50:28;0.67;;;0.50;;
13933;SDS011;7039;52.168;9.866;2022-07-15T17:52:55;1.80;;;0.80;;
13933;SDS011;7039;52.168;9.866;2022-07-15T17:55:23;1.63;;;0.70;;
13933;SDS011;7039;52.168;9.866;2022-07-15T17:57:49;1.30;;;0.47;;
13933;SDS011;7039;52.168;9.866;2022-07-15T18:00:16;2.60;;;0.80;;
13933;SDS011;7039;52.168;9.866;2022-07-15T18:02:42;3.33;;;0.50;;
13933;SDS011;7039;52.168;9.866;2022-07-15T18:05:09;2.07;;;0.60;;
13933;SDS011;7039;52.168;9.866;2022-07-15T18:07:36;1.43;;;0.60;;
13933;SDS011;7039;52.168;9.866;2022-07-15T18:10:03;1.93;;;0.60;;
13933;SDS011;7039;52.168;9.866;2022-07-15T18:12:32;2.93;;;0.67;;
13933;SDS011;7039;52.168;9.866;2022-07-15T18:14:58;2.33;;;0.60;;
13933;SDS011;7039;52.168;9.866;2022-07-15T18:17:25;0.80;;;0.40;;
13933;SDS011;7039;52.168;9.866;2022-07-15T18:19:51;0.57;;;0.50;;
13933;SDS011;7039;52.168;9.866;2022-07-15T18:22:18;2.33;;;0.70;;
13933;SDS011;7039;52.168;9.866;2022-07-15T18:24:44;1.33;;;0.57;;
13933;SDS011;7039;52.168;9.866;2022-07-15T18:27:12;1.53;;;0.60;;
13933;SDS011;7039;52.168;9.866;2022-07-15T18:29:40;3.03;;;1.47;;
13933;SDS011;7039;52.168;9.866;2022-07-15T18:32:07;1.93;;;0.60;;
13933;SDS011;7039;52.168;9.866;2022-07-15T18:34:34;2.43;;;1.10;;
13933;SDS011;7039;52.168;9.866;2022-07-15T18:37:00;11.17;;;0.60;;
13933;SDS011;7039;52.168;9.866;2022-07-15T18:39:27;3.17;;;0.60;;
13933;SDS011;7039;52.168;9.866;2022-07-15T18:41:54;0.60;;;0.57;;
13933;SDS011;7039;52.168;9.866;2022-07-15T18:44:20;3.33;;;0.77;;
13933;SDS011;7039;52.168;9.866;2022-07-15T18:46:48;2.20;;;0.47;;
13933;SDS011;7039;52.168;9.866;2022-07-15T18:49:15;2.23;;;0.70;;
13933;SDS011;7039;52.168;9.866;2022-07-15T18:51:41;0.57;;;0.57;;
13933;SDS011;7039;52.168;9.866;2022-07-15T18:54:08;1.70;;;0.50;;
13933;SDS011;7039;52.168;9.866;2022-07-15T18:56:34;0.93;;;0.40;;
13933;SDS011;7039;52.168;9.866;2022-07-15T18:59:01;1.13;;;0.50;;
13933;SDS011;7039;52.168;9.866;2022-07-15T19:01:28;0.50;;;0.50;;
13933;SDS011;7039;52.168;9.866;2022-07-15T19:03:56;1.27;;;0.73;;
13933;SDS011;7039;52.168;9.866;2022-07-15T19:06:23;3.60;;;0.60;;
13933;SDS011;7039;52.168;9.866;2022-07-15T19:08:50;1.30;;;0.60;;
13933;SDS011;7039;52.168;9.866;2022-07-15T19:11:17;3.20;;;0.60;;
13933;SDS011;7039;52.168;9.866;2022-07-15T19:13:44;0.87;;;0.60;;
13933;SDS011;7039;52.168;9.866;2022-07-15T19:16:10;0.57;;;0.57;;
13933;SDS011;7039;52.168;9.866;2022-07-15T19:18:37;1.30;;;0.70;;
13933;SDS011;7039;52.168;9.866;2022-07-15T19:21:05;7.57;;;0.80;;
13933;SDS011;7039;52.168;9.866;2022-07-15T19:23:31;2.50;;;0.70;;
13933;SDS011;7039;52.168;9.866;2022-07-15T19:25:58;5.80;;;0.80;;
13933;SDS011;7039;52.168;9.866;2022-07-15T19:28:24;1.70;;;0.60;;
13933;SDS011;7039;52.168;9.866;2022-07-15T19:30:51;1.90;;;0.80;;
13933;SDS011;7039;52.168;9.866;2022-07-15T19:33:20;2.40;;;0.70;;
13933;SDS011;7039;52.168;9.866;2022-07-15T19:35:47;3.33;;;0.80;;
13933;SDS011;7039;52.168;9.866;2022-07-15T19:38:15;3.83;;;0.63;;
13933;SDS011;7039;52.168;9.866;2022-07-15T19:40:42;0.80;;;0.60;;
13933;SDS011;7039;52.168;9.866;2022-07-15T19:43:09;2.27;;;0.70;;
13933;SDS011;7039;52.168;9.866;2022-07-15T19:45:36;2.40;;;0.50;;
13933;SDS011;7039;52.168;9.866;2022-07-15T19:48:03;0.80;;;0.63;;
13933;SDS011;7039;52.168;9.866;2022-07-15T19:50:30;1.23;;;0.47;;
13933;SDS011;7039;52.168;9.866;2022-07-15T19:52:57;3.00;;;0.63;;
13933;SDS011;7039;52.168;9.866;2022-07-15T19:55:24;0.90;;;0.70;;
13933;SDS011;7039;52.168;9.866;2022-07-15T19:57:51;1.63;;;0.83;;